Time;durP1;ratioP1;P1;durP2;ratioP2;P2;SDS_P1;SDS_P2;PMS_P1;PMS_P2;Temp;Humidity;BMP_temperature;BMP_pressure;BME280_temperature;BME280_humidity;BME280_pressure;Samples;Min_cycle;Max_cycle;Signal;HPM_P1;HPM_P2
2022/10/02 00:00:33;;;;;;;14.80;3.72;;;;;;;12.38;100.00;101497.91;7372672;19;20103;-72
2022/10/02 00:03:08;;;;;;;17.20;4.25;;;;;;;12.38;100.00;101505.78;7374113;19;20017;-73
2022/10/02 00:05:44;;;;;;;15.23;3.55;;;;;;;12.39;100.00;101513.69;7374573;19;20022;-73
2022/10/02 00:08:18;;;;;;;13.80;4.10;;;;;;;12.38;100.00;101505.78;7374620;19;20010;-70
2022/10/02 00:10:59;;;;;;;13.57;3.60;;;;;;;12.44;100.00;101509.41;7377792;19;20042;-69
2022/10/02 00:13:33;;;;;;;10.20;4.10;;;;;;;12.50;100.00;101513.84;7373877;19;20122;-69
2022/10/02 00:16:06;;;;;;;12.90;3.58;;;;;;;12.54;100.00;101509.50;7374391;19;20026;-69
2022/10/02 00:18:38;;;;;;;11.85;3.85;;;;;;;12.58;100.00;101517.47;7372894;19;20015;-72
2022/10/02 00:21:22;;;;;;;14.68;3.88;;;;;;;12.57;100.00;101505.19;7373896;19;20477;-73
2022/10/02 00:23:56;;;;;;;12.18;4.32;;;;;;;12.56;100.00;101516.56;7373416;19;20011;-72
2022/10/02 00:26:32;;;;;;;20.92;4.57;;;;;;;12.57;100.00;101513.09;7372306;19;20510;-72
2022/10/02 00:29:17;;;;;;;18.67;3.40;;;;;;;12.57;100.00;101523.59;7370152;19;20014;-72
2022/10/02 00:31:52;;;;;;;;;;;;;;;12.58;100.00;101521.84;7368119;19;20021;-72
2022/10/02 00:34:35;;;;;;;20.27;3.70;;;;;;;12.67;100.00;101520.25;7372709;19;19914;-72
2022/10/02 00:37:12;;;;;;;15.27;5.00;;;;;;;12.69;100.00;101518.53;7371739;19;20510;-73
2022/10/02 00:39:57;;;;;;;13.02;3.75;;;;;;;12.69;100.00;101529.06;7371587;19;20022;-73
2022/10/02 00:42:54;;;;;;;15.35;3.55;;;;;;;12.72;100.00;101534.38;7366175;19;20015;-73
2022/10/02 00:45:54;;;;;;;16.27;3.60;;;;;;;12.75;100.00;101528.28;7369258;19;20014;-69
2022/10/02 00:48:39;;;;;;;17.83;3.50;;;;;;;12.82;100.00;101518.72;7370984;19;20114;-69
2022/10/02 00:51:16;;;;;;;12.02;2.95;;;;;;;12.84;100.00;101527.53;7368758;19;20365;-69
2022/10/02 00:53:57;;;;;;;14.00;3.80;;;;;;;12.86;100.00;101531.94;7367218;19;20020;-69
2022/10/02 00:56:32;;;;;;;15.48;3.80;;;;;;;12.92;100.00;101529.41;7367475;19;20022;-69
2022/10/02 00:59:27;;;;;;;12.68;3.40;;;;;;;12.95;100.00;101524.19;7368948;19;20015;-69
2022/10/02 01:02:02;;;;;;;18.90;3.97;;;;;;;12.99;100.00;101523.38;7370793;19;20034;-69
2022/10/02 01:04:34;;;;;;;17.48;3.33;;;;;;;13.02;100.00;101522.53;7369150;19;20014;-69
2022/10/02 01:07:06;;;;;;;16.40;3.33;;;;;;;13.02;100.00;101531.31;7368986;19;20019;-69
2022/10/02 01:09:36;;;;;;;13.98;3.08;;;;;;;13.00;100.00;101534.78;7367143;19;20010;-69
2022/10/02 01:12:06;;;;;;;10.35;3.90;;;;;;;12.98;100.00;101533.88;7367381;19;20014;-69
2022/10/02 01:14:40;;;;;;;11.88;2.60;;;;;;;12.96;100.00;101532.97;7367008;19;20010;-69
2022/10/02 01:17:25;;;;;;;13.85;3.75;;;;;;;13.03;100.00;101535.72;7369031;19;20010;-69
2022/10/02 01:19:56;;;;;;;17.42;3.90;;;;;;;13.00;100.00;101534.78;7364974;19;20026;-69
2022/10/02 01:22:33;;;;;;;14.73;3.78;;;;;;;12.99;100.00;101533.91;7365574;19;20015;-69
2022/10/02 01:25:07;;;;;;;16.00;3.47;;;;;;;12.96;100.00;101528.59;7367096;19;20021;-69
2022/10/02 01:27:38;;;;;;;14.75;3.30;;;;;;;13.00;100.00;101535.66;7369726;19;20014;-69
2022/10/02 01:30:10;;;;;;;13.00;4.03;;;;;;;13.04;100.00;101526.06;7367279;19;20007;-69
2022/10/02 01:32:44;;;;;;;12.73;3.28;;;;;;;13.06;100.00;101532.25;7367324;19;20006;-72
2022/10/02 01:35:15;;;;;;;14.40;3.38;;;;;;;13.00;100.00;101537.41;7369619;19;20011;-72
2022/10/02 01:37:47;;;;;;;11.07;2.80;;;;;;;12.96;100.00;101536.50;7367049;19;20527;-72
2022/10/02 01:40:29;;;;;;;12.45;3.08;;;;;;;12.96;100.00;101544.38;7376505;19;20014;-72
2022/10/02 01:43:02;;;;;;;8.32;2.80;;;;;;;12.97;100.00;101545.28;7371431;19;20010;-73
2022/10/02 01:45:44;;;;;;;12.77;3.05;;;;;;;13.02;100.00;101544.47;7373219;19;20648;-72
2022/10/02 01:48:21;;;;;;;17.13;3.92;;;;;;;13.03;100.00;101551.50;7374297;19;20085;-72
2022/10/02 01:51:04;;;;;;;15.15;3.95;;;;;;;13.05;100.00;101551.53;7373250;19;20010;-72
2022/10/02 01:53:41;;;;;;;10.60;3.43;;;;;;;13.01;100.00;101552.34;7369347;19;20773;-73
2022/10/02 01:56:20;;;;;;;13.23;3.00;;;;;;;12.99;100.00;101562.88;7376130;19;20006;-73
2022/10/02 01:59:04;;;;;;;15.88;3.22;;;;;;;12.99;100.00;101559.34;7373482;19;20166;-72
2022/10/02 02:01:45;;;;;;;12.68;3.17;;;;;;;12.93;100.00;101557.50;7373057;19;20499;-69
2022/10/02 02:04:24;;;;;;;13.23;3.50;;;;;;;12.89;100.00;101557.44;7377818;19;20125;-69
2022/10/02 02:07:03;;;;;;;13.20;3.22;;;;;;;12.87;100.00;101562.69;7374021;19;20439;-69
2022/10/02 02:09:38;;;;;;;14.52;3.35;;;;;;;12.85;100.00;101556.50;7372393;19;20011;-68
2022/10/02 02:12:16;;;;;;;19.05;4.07;;;;;;;12.86;100.00;101565.28;7370333;19;20018;-68
2022/10/02 02:14:51;;;;;;;11.93;3.45;;;;;;;12.83;100.00;101562.63;7375232;19;20023;-69
2022/10/02 02:17:28;;;;;;;14.73;3.35;;;;;;;12.84;100.00;101560.00;7372637;19;20021;-69
2022/10/02 02:20:03;;;;;;;11.32;3.67;;;;;;;12.87;100.00;101564.44;7376998;19;20015;-68
2022/10/02 02:22:37;;;;;;;10.38;3.08;;;;;;;12.84;100.00;101565.28;7371532;19;20094;-69
2022/10/02 02:25:12;;;;;;;14.18;3.28;;;;;;;12.85;100.00;101555.63;7373911;19;20014;-69
2022/10/02 02:27:49;;;;;;;17.45;3.80;;;;;;;12.88;100.00;101563.56;7375133;19;20018;-71
2022/10/02 02:30:21;;;;;;;21.70;3.70;;;;;;;12.87;100.00;101561.78;7373711;19;20011;-68
2022/10/02 02:32:55;;;;;;;17.38;3.78;;;;;;;12.90;100.00;101562.72;7375384;19;20695;-68
2022/10/02 02:35:29;;;;;;;12.30;4.15;;;;;;;12.92;100.00;101568.03;7375756;19;20014;-69
2022/10/02 02:38:04;;;;;;;12.82;3.40;;;;;;;12.89;100.00;101566.22;7376933;19;20301;-68
2022/10/02 02:40:40;;;;;;;11.88;3.60;;;;;;;12.90;100.00;101562.72;7375219;19;20002;-69
2022/10/02 02:43:18;;;;;;;12.75;3.10;;;;;;;12.93;100.00;101560.16;7373122;19;20018;-68
2022/10/02 02:45:53;;;;;;;16.65;2.90;;;;;;;12.94;100.00;101566.28;7374756;19;20341;-68
2022/10/02 02:48:26;;;;;;;16.30;3.33;;;;;;;12.90;100.00;101564.47;7368843;19;20143;-68
2022/10/02 02:50:59;;;;;;;20.77;3.40;;;;;;;12.90;100.00;101565.34;7371404;19;20994;-68
2022/10/02 02:53:35;;;;;;;14.02;3.05;;;;;;;12.93;100.00;101572.41;7371903;19;20021;-72
2022/10/02 02:56:10;;;;;;;19.35;3.75;;;;;;;12.92;100.00;101568.03;7372892;19;20439;-72
2022/10/02 02:58:48;;;;;;;10.95;2.95;;;;;;;12.98;100.00;101574.25;7371007;19;20006;-72
2022/10/02 03:01:18;;;;;;;17.15;3.80;;;;;;;13.02;100.00;101575.19;7375069;19;20014;-72
2022/10/02 03:03:48;;;;;;;17.33;3.45;;;;;;;13.04;100.00;101576.09;7371570;19;20026;-68
2022/10/02 03:06:36;;;;;;;15.95;3.67;;;;;;;13.06;100.00;101577.00;7374348;19;20068;-68
2022/10/02 03:09:11;;;;;;;16.92;3.75;;;;;;;13.09;100.00;101577.06;7373832;19;20665;-68
2022/10/02 03:11:54;;;;;;;17.90;4.57;;;;;;;13.06;100.00;101579.66;7374836;19;20395;-68
2022/10/02 03:14:46;;;;;;;15.95;4.10;;;;;;;13.06;100.00;101579.66;7374322;19;20010;-68
2022/10/02 03:17:28;;;;;;;13.10;3.05;;;;;;;13.01;100.00;101586.59;7372821;19;20014;-68
2022/10/02 03:20:07;;;;;;;15.02;3.15;;;;;;;12.94;100.00;101587.34;7369118;19;20014;-68
2022/10/02 03:22:43;;;;;;;10.63;2.95;;;;;;;12.94;100.00;101576.81;7367372;19;20018;-68
2022/10/02 03:25:17;;;;;;;13.45;2.90;;;;;;;12.87;100.00;101586.38;7374479;19;20017;-68
2022/10/02 03:27:54;;;;;;;12.43;3.55;;;;;;;12.85;100.00;101584.56;7371721;19;20010;-68
2022/10/02 03:30:27;;;;;;;17.45;3.38;;;;;;;12.85;100.00;101592.47;7369657;19;20014;-68
2022/10/02 03:32:59;;;;;;;9.70;2.70;;;;;;;12.74;100.00;101584.41;7371398;19;20107;-68
2022/10/02 03:35:31;;;;;;;11.63;2.90;;;;;;;12.68;100.00;101584.31;7369024;19;20332;-68
2022/10/02 03:38:05;;;;;;;13.35;3.17;;;;;;;12.60;100.00;101580.66;7371371;19;20015;-68
2022/10/02 03:40:35;;;;;;;16.15;3.53;;;;;;;12.54;100.00;101597.22;7372341;19;20017;-68
2022/10/02 03:43:05;;;;;;;13.95;2.70;;;;;;;12.48;100.00;101591.84;7372097;19;20018;-68
2022/10/02 03:45:37;;;;;;;14.35;2.80;;;;;;;12.49;100.00;101593.63;7374368;19;20010;-68
2022/10/02 03:48:20;;;;;;;8.75;2.30;;;;;;;12.46;100.00;101596.25;7371675;19;20018;-68
2022/10/02 03:50:51;;;;;;;9.73;2.72;;;;;;;12.38;100.00;101596.09;7372762;19;20014;-67
2022/10/02 03:53:23;;;;;;;15.48;3.13;;;;;;;12.32;100.00;101589.84;7367675;19;20659;-68
2022/10/02 03:55:57;;;;;;;15.80;4.05;;;;;;;12.29;100.00;101588.06;7370897;19;20018;-68
2022/10/02 03:58:27;;;;;;;12.32;2.95;;;;;;;12.21;100.00;101588.78;7370406;19;20019;-68
2022/10/02 04:01:06;;;;;;;11.82;2.65;;;;;;;12.13;100.00;101587.75;7370435;19;20061;-67
2022/10/02 04:03:38;;;;;;;11.40;2.60;;;;;;;12.07;100.00;101592.03;7369537;19;20018;-68
2022/10/02 04:06:14;;;;;;;9.32;2.50;;;;;;;11.97;100.00;101582.19;7371941;19;20011;-68
2022/10/02 04:08:49;;;;;;;9.68;2.40;;;;;;;11.89;100.00;101581.16;7369326;19;20014;-68
2022/10/02 04:11:24;;;;;;;7.47;2.33;;;;;;;11.81;100.00;101590.63;7369983;19;20041;-68
2022/10/02 04:13:59;;;;;;;14.32;3.25;;;;;;;11.71;100.00;101592.13;7369254;19;20014;-68
2022/10/02 04:16:37;;;;;;;11.05;2.65;;;;;;;11.60;100.00;101596.28;7370188;19;20716;-68
2022/10/02 04:19:15;;;;;;;12.18;2.92;;;;;;;11.55;100.00;101603.19;7369849;19;20014;-68
2022/10/02 04:21:50;;;;;;;10.52;3.00;;;;;;;11.50;100.00;101603.94;7371651;19;20010;-69
2022/10/02 04:24:27;;;;;;;14.73;3.20;;;;;;;11.43;100.00;101603.84;7374184;19;20025;-69
2022/10/02 04:27:07;;;;;;;13.35;2.90;;;;;;;11.44;100.00;101602.06;7368505;19;20006;-67
2022/10/02 04:29:43;;;;;;;13.52;3.25;;;;;;;11.38;100.00;101599.34;7366905;19;20500;-67
2022/10/02 04:32:18;;;;;;;18.05;4.15;;;;;;;11.33;100.00;101612.38;7371434;19;21734;-67
2022/10/02 04:34:48;;;;;;;12.43;3.58;;;;;;;11.27;100.00;101606.09;7372223;19;20044;-67
2022/10/02 04:37:47;;;;;;;10.73;2.95;;;;;;;11.19;100.00;101613.78;7370727;19;20022;-71
2022/10/02 04:40:49;;;;;;;11.70;3.90;;;;;;;11.18;100.00;101619.00;7372424;19;20022;-71
2022/10/02 04:43:33;;;;;;;15.98;4.40;;;;;;;11.13;100.00;101611.03;7370101;19;20046;-72
2022/10/02 04:46:14;;;;;;;13.02;2.97;;;;;;;11.10;100.00;101618.81;7366421;19;20017;-71
2022/10/02 04:49:13;;;;;;;13.25;3.35;;;;;;;11.12;100.00;101620.63;7368804;19;20036;-72
2022/10/02 04:51:59;;;;;;;13.57;3.63;;;;;;;11.12;100.00;101625.00;7368089;19;20052;-71
2022/10/02 04:54:50;;;;;;;13.70;3.38;;;;;;;11.11;100.00;101629.38;7364143;19;20006;-70
2022/10/02 04:57:33;;;;;;;16.70;4.13;;;;;;;11.23;100.00;101651.50;7368819;19;20011;-70
2022/10/02 05:00:09;;;;;;;19.42;3.45;;;;;;;11.23;100.00;101651.50;7368334;19;20060;-70
2022/10/02 05:03:00;;;;;;;12.55;3.80;;;;;;;11.25;100.00;101650.69;7367641;19;20020;-70
2022/10/02 05:05:49;;;;;;;10.57;3.38;;;;;;;11.26;100.00;101657.72;7368901;19;20026;-70
2022/10/02 05:08:35;;;;;;;13.93;2.95;;;;;;;11.22;100.00;101655.88;7372606;19;20021;-70
2022/10/02 05:11:23;;;;;;;9.20;2.75;;;;;;;11.19;100.00;101653.19;7365631;19;20030;-70
2022/10/02 05:14:12;;;;;;;8.77;3.25;;;;;;;11.20;100.00;101654.94;7366413;19;20025;-70
2022/10/02 05:17:00;;;;;;;9.32;3.03;;;;;;;11.15;100.00;101661.84;7369875;19;20097;-70
2022/10/02 05:19:47;;;;;;;13.57;3.13;;;;;;;11.18;100.00;101669.78;7368127;19;20006;-70
2022/10/02 05:22:41;;;;;;;13.07;3.85;;;;;;;11.28;100.00;101673.50;7367579;19;20014;-70
2022/10/02 05:25:25;;;;;;;13.32;3.20;;;;;;;11.54;100.00;101682.84;7368322;19;20081;-70
2022/10/02 05:28:12;;;;;;;16.60;4.07;;;;;;;11.53;100.00;101672.31;7368485;19;20017;-70
2022/10/02 05:30:48;;;;;;;11.35;3.22;;;;;;;11.74;100.00;101672.78;7366053;19;20018;-70
2022/10/02 05:33:43;;;;;;;12.65;3.47;;;;;;;11.75;100.00;101679.81;7364815;19;20010;-70
2022/10/02 05:36:36;;;;;;;12.55;3.08;;;;;;;11.81;100.00;101685.25;7368992;19;20021;-70
2022/10/02 05:39:15;;;;;;;12.13;2.83;;;;;;;11.78;100.00;101679.91;7367106;19;20021;-70
2022/10/02 05:41:55;;;;;;;9.38;3.05;;;;;;;11.78;100.00;101677.28;7367297;19;20010;-70
2022/10/02 05:44:33;;;;;;;11.57;3.72;;;;;;;11.83;100.00;101683.53;7369198;19;20014;-70
2022/10/02 05:47:12;;;;;;;16.73;3.55;;;;;;;11.79;100.00;101693.09;7363085;19;20021;-70
2022/10/02 05:49:46;;;;;;;14.57;2.60;;;;;;;11.85;100.00;101699.34;7364621;19;20014;-68
2022/10/02 05:52:20;;;;;;;13.40;3.38;;;;;;;11.89;100.00;101702.06;7365158;19;20021;-68
2022/10/02 05:54:59;;;;;;;21.95;3.50;;;;;;;11.94;100.00;101696.91;7364236;19;20022;-68
2022/10/02 05:57:34;;;;;;;10.20;3.25;;;;;;;11.93;100.00;101701.28;7365775;19;20039;-68
2022/10/02 06:00:18;;;;;;;9.57;2.67;;;;;;;12.00;100.00;101699.66;7366646;19;20365;-68
2022/10/02 06:02:56;;;;;;;14.68;3.50;;;;;;;12.04;100.00;101705.00;7365461;19;20003;-68
2022/10/02 06:05:31;;;;;;;14.68;2.92;;;;;;;11.99;100.00;101706.66;7366300;19;20019;-68
2022/10/02 06:08:06;;;;;;;13.77;3.20;;;;;;;12.02;100.00;101713.72;7369114;19;20015;-70
2022/10/02 06:10:43;;;;;;;15.70;3.42;;;;;;;12.03;100.00;101711.13;7367353;19;20093;-67
2022/10/02 06:13:19;;;;;;;10.25;3.15;;;;;;;12.00;100.00;101708.44;7365425;19;20011;-70
2022/10/02 06:15:52;;;;;;;11.48;3.22;;;;;;;12.00;100.00;101713.69;7368476;19;20465;-68
2022/10/02 06:18:27;;;;;;;7.47;2.42;;;;;;;11.99;100.00;101706.66;7369043;19;20047;-68
2022/10/02 06:21:03;;;;;;;17.00;4.05;;;;;;;11.97;100.00;101718.88;7365402;19;20029;-68
2022/10/02 06:23:40;;;;;;;16.02;4.10;;;;;;;11.97;100.00;101728.50;7368504;19;20038;-68
2022/10/02 06:26:18;;;;;;;8.75;3.20;;;;;;;11.98;100.00;101731.19;7374109;19;20455;-68
2022/10/02 06:28:53;;;;;;;9.38;3.08;;;;;;;12.00;100.00;101724.22;7374954;19;20089;-68
2022/10/02 06:31:32;;;;;;;13.38;3.58;;;;;;;12.02;100.00;101732.13;7375525;19;20010;-68
2022/10/02 06:34:02;;;;;;;14.70;4.53;;;;;;;12.06;100.00;101737.50;7378266;19;20044;-68
2022/10/02 06:36:54;;;;;;;16.30;4.95;;;;;;;12.14;100.00;101750.81;7376240;19;20015;-70
2022/10/02 06:39:56;;;;;;;8.55;3.50;;;;;;;12.16;100.00;101745.56;7379471;19;20025;-71
2022/10/02 06:42:42;;;;;;;13.07;4.70;;;;;;;12.21;100.00;101749.19;7377064;19;20021;-71
2022/10/02 06:45:20;;;;;;;13.95;3.83;;;;;;;12.23;100.00;101751.00;7377629;19;20010;-71
2022/10/02 06:48:07;;;;;;;15.23;5.05;;;;;;;12.26;100.00;101756.31;7374217;19;20078;-71
2022/10/02 06:50:45;;;;;;;14.82;4.13;;;;;;;12.30;100.00;101747.63;7374816;19;20042;-71
2022/10/02 06:53:36;;;;;;;23.52;7.13;;;;;;;12.40;100.00;101752.22;7374885;19;20021;-70
2022/10/02 06:56:23;;;;;;;14.73;4.50;;;;;;;12.47;100.00;101763.75;7375618;19;20007;-71
2022/10/02 06:59:08;;;;;;;14.23;4.50;;;;;;;12.59;100.00;101760.47;7376366;19;20014;-71
2022/10/02 07:01:47;;;;;;;13.48;4.18;;;;;;;12.69;100.00;101765.03;7377859;19;20025;-71
2022/10/02 07:04:41;;;;;;;15.00;3.75;;;;;;;12.75;100.00;101766.06;7375438;19;20041;-72
2022/10/02 07:07:32;;;;;;;14.40;3.95;;;;;;;12.89;100.00;101773.31;7378260;19;20006;-71
2022/10/02 07:10:16;;;;;;;13.70;3.72;;;;;;;12.93;100.00;101769.88;7377804;19;20363;-71
2022/10/02 07:13:01;;;;;;;12.70;3.38;;;;;;;12.94;100.00;101766.41;7375380;19;20017;-71
2022/10/02 07:15:50;;;;;;;15.07;4.20;;;;;;;12.95;100.00;101774.31;7375586;19;20011;-71
2022/10/02 07:18:29;;;;;;;20.02;5.45;;;;;;;12.98;100.00;101776.13;7375857;19;20085;-72
2022/10/02 07:21:09;;;;;;;15.02;4.50;;;;;;;13.05;100.00;101775.38;7375982;19;20011;-71
2022/10/02 07:23:53;;;;;;;15.60;4.32;;;;;;;13.08;100.00;101776.31;7376601;19;20017;-71
2022/10/02 07:26:49;;;;;;;14.05;4.30;;;;;;;13.13;100.00;101792.22;7374763;19;20106;-72
2022/10/02 07:29:28;;;;;;;12.00;3.20;;;;;;;13.18;100.00;101785.31;7375602;19;20070;-71
2022/10/02 07:32:25;;;;;;;15.95;3.22;;;;;;;13.21;100.00;101777.47;7376060;19;20011;-71
2022/10/02 07:35:02;;;;;;;15.20;3.05;;;;;;;13.26;100.00;101777.53;7371647;19;20026;-72
2022/10/02 07:37:46;;;;;;;14.40;4.13;;;;;;;13.29;100.00;101785.50;7373918;19;20483;-71
2022/10/02 07:40:36;;;;;;;13.10;3.83;;;;;;;13.36;100.00;101785.63;7374629;19;20013;-71
2022/10/02 07:43:17;;;;;;;17.92;4.22;;;;;;;13.43;100.00;101783.97;7374798;19;20019;-72
2022/10/02 07:45:56;;;;;;;19.67;5.43;;;;;;;13.53;100.00;101784.97;7373771;19;20479;-67
2022/10/02 07:48:50;;;;;;;14.43;3.55;;;;;;;13.63;100.00;101797.44;7372137;19;20432;-68
2022/10/02 07:54:26;;;;;;;15.65;3.70;;;;;;;13.80;100.00;101792.44;7371987;19;20335;-68
2022/10/02 07:57:01;;;;;;;17.10;6.53;;;;;;;13.86;100.00;101796.06;7369334;19;20019;-67
2022/10/02 07:59:42;;;;;;;20.75;4.88;;;;;;;13.91;100.00;101804.94;7370085;19;20074;-67
2022/10/02 08:02:26;;;;;;;12.80;3.05;;;;;;;13.96;100.00;101808.50;7371791;19;20013;-68
2022/10/02 08:05:01;;;;;;;;;;;;;;;14.04;100.00;101809.50;7367687;19;20010;-71
2022/10/02 08:07:32;;;;;;;10.13;3.17;;;;;;;14.12;100.00;101814.91;7366308;19;19918;-71
2022/10/02 08:10:08;;;;;;;17.08;4.38;;;;;;;14.18;100.00;101816.75;7370230;19;20014;-70
2022/10/02 08:12:43;;;;;;;15.45;3.60;;;;;;;14.23;100.00;101815.94;7370523;19;20007;-71
2022/10/02 08:15:16;;;;;;;12.07;4.30;;;;;;;14.34;100.00;101821.38;7368927;19;20042;-71
2022/10/02 08:17:51;;;;;;;13.27;4.45;;;;;;;14.43;100.00;101832.06;7371733;19;20280;-71
2022/10/02 08:20:29;;;;;;;16.67;4.18;;;;;;;14.56;100.00;101827.84;7368327;19;20438;-70
2022/10/02 08:23:08;;;;;;;18.20;5.03;;;;;;;14.64;100.00;101831.44;7370196;19;20073;-70
2022/10/02 08:25:44;;;;;;;17.55;4.00;;;;;;;14.70;100.00;101840.31;7371869;19;20645;-71
2022/10/02 08:28:22;;;;;;;15.88;4.55;;;;;;;14.78;100.00;101844.81;7372453;19;20111;-71
2022/10/02 08:30:53;;;;;;;18.50;3.78;;;;;;;14.76;100.00;101860.63;7366923;19;20006;-71
2022/10/02 08:33:24;;;;;;;15.10;3.80;;;;;;;14.84;100.00;101856.34;7365649;19;20011;-71
2022/10/02 08:36:21;;;;;;;17.58;4.88;;;;;;;15.00;100.00;101862.69;7365000;19;20006;-70
2022/10/02 08:38:57;;;;;;;18.23;3.80;;;;;;;15.10;100.00;101854.00;7363339;19;20642;-71
2022/10/02 08:42:10;;;;;;;12.60;3.58;;;;;;;15.12;100.00;101862.81;7365928;19;20014;-71
2022/10/02 08:45:03;;;;;;;10.70;3.10;;;;;;;15.20;100.00;101870.81;7365551;19;20018;-71
2022/10/02 08:48:07;;;;;;;18.83;4.55;;;;;;;15.25;100.00;101874.41;7364161;19;20014;-71
2022/10/02 08:51:06;;;;;;;13.65;3.47;;;;;;;15.30;100.00;101863.00;7367974;19;20041;-71
2022/10/02 08:54:23;;;;;;;19.38;4.03;;;;;;;15.40;100.00;101861.34;7359487;19;20511;-71
2022/10/02 08:57:13;;;;;;;12.93;2.72;;;;;;;15.36;100.00;101871.00;7367241;19;20018;-71
2022/10/02 09:00:09;;;;;;;14.95;3.25;;;;;;;15.30;100.00;101878.88;7363882;19;20038;-71
2022/10/02 09:03:11;;;;;;;13.15;3.08;;;;;;;15.39;100.00;101872.78;7368797;19;20010;-71
2022/10/02 09:06:09;;;;;;;18.33;5.45;;;;;;;15.51;100.00;101887.88;7363708;19;20013;-72
2022/10/02 09:09:16;;;;;;;13.38;3.20;;;;;;;15.53;100.00;101883.50;7362962;19;20006;-71
2022/10/02 09:12:03;;;;;;;15.32;3.85;;;;;;;15.44;100.00;101883.41;7367222;19;20022;-68
2022/10/02 09:14:52;;;;;;;15.75;4.00;;;;;;;15.42;100.00;101895.72;7363907;19;20502;-68
2022/10/02 09:17:46;;;;;;;12.50;3.22;;;;;;;15.39;100.00;101893.94;7362324;19;20363;-68
2022/10/02 09:20:48;;;;;;;15.60;3.95;;;;;;;15.47;100.00;101901.94;7362259;19;20018;-69
2022/10/02 09:23:51;;;;;;;12.68;3.22;;;;;;;15.57;100.00;101901.19;7364684;19;20010;-69
2022/10/02 09:26:33;;;;;;;13.20;3.28;;;;;;;15.48;100.00;101912.53;7368033;19;20014;-69
2022/10/02 09:29:39;;;;;;;13.90;3.15;;;;;;;15.37;100.00;101904.50;7365767;19;20025;-69
2022/10/02 09:32:46;;;;;;;12.75;3.17;;;;;;;15.39;100.00;101904.50;7368310;19;20479;-69
2022/10/02 09:35:37;;;;;;;15.20;3.95;;;;;;;15.68;100.00;101905.69;7362103;19;20021;-69
2022/10/02 09:38:31;;;;;;;15.35;3.30;;;;;;;15.95;100.00;101904.16;7362412;19;20021;-69
2022/10/02 09:41:40;;;;;;;7.80;2.60;;;;;;;16.39;100.00;101912.41;7369625;19;20034;-69
2022/10/02 09:44:57;;;;;;;13.82;4.88;;;;;;;16.21;100.00;101905.25;7370491;19;20006;-69
2022/10/02 09:48:07;;;;;;;10.77;3.10;;;;;;;16.14;100.00;101924.59;7365410;19;20026;-69
2022/10/02 09:51:12;;;;;;;12.50;3.22;;;;;;;15.91;100.00;101921.75;7368098;19;20595;-69
2022/10/02 09:54:12;;;;;;;10.82;2.63;;;;;;;15.99;100.00;101924.47;7359982;19;20025;-69
2022/10/02 09:57:23;;;;;;;8.88;3.28;;;;;;;16.59;100.00;101929.31;7364934;19;20137;-69
2022/10/02 10:00:10;;;;;;;7.70;2.70;;;;;;;16.56;100.00;101925.75;7361922;19;20018;-69
2022/10/02 10:03:24;;;;;;;12.38;2.95;;;;;;;16.46;100.00;101926.59;7375614;19;20014;-69
2022/10/02 10:06:25;;;;;;;11.30;2.90;;;;;;;16.34;100.00;101937.97;7374078;19;20044;-69
2022/10/02 10:09:22;;;;;;;12.48;3.58;;;;;;;16.30;100.00;101941.47;7372948;19;20010;-69
2022/10/02 10:12:24;;;;;;;10.43;3.00;;;;;;;16.48;100.00;101941.59;7372160;19;20307;-68
2022/10/02 10:15:25;;;;;;;8.98;3.03;;;;;;;16.71;100.00;101954.09;7370003;19;20018;-69
2022/10/02 10:18:38;;;;;;;13.85;2.90;;;;;;;16.91;100.00;101952.44;7368485;19;20017;-69
2022/10/02 10:21:25;;;;;;;9.35;2.45;;;;;;;16.74;100.00;101956.78;7370411;19;20018;-69
2022/10/02 10:24:22;;;;;;;10.00;2.90;;;;;;;16.61;100.00;101967.28;7373058;19;20090;-69
2022/10/02 10:27:18;;;;;;;15.45;3.22;;;;;;;16.46;100.00;101959.25;7371128;19;20014;-68
2022/10/02 10:30:12;;;;;;;15.68;3.70;;;;;;;16.43;100.00;101968.94;7373412;19;20042;-72
2022/10/02 10:33:18;;;;;;;6.57;2.10;;;;;;;16.35;100.00;101972.41;7368638;19;20029;-72
2022/10/02 10:38:31;;;;;;;15.77;3.53;;;;;;;16.74;100.00;101970.03;7377122;19;20002;-72
2022/10/02 10:39:25;;;;;;;10.48;3.20;;;;;;;16.67;100.00;101974.41;7376847;19;20482;-72
2022/10/02 10:42:29;;;;;;;10.82;2.75;;;;;;;16.76;100.00;101974.44;7379867;19;20007;-72
2022/10/02 10:45:32;;;;;;;13.98;3.30;;;;;;;16.94;100.00;101986.91;7377600;19;20013;-72
2022/10/02 10:48:27;;;;;;;13.13;3.05;;;;;;;16.72;100.00;101979.72;7378130;19;20017;-72
2022/10/02 10:51:03;;;;;;;9.52;2.92;;;;;;;16.72;100.00;101982.38;7378433;19;20291;-72
2022/10/02 10:54:07;;;;;;;8.63;2.40;;;;;;;16.81;100.00;101993.91;7375736;19;21351;-72
2022/10/02 10:56:45;;;;;;;6.57;2.65;;;;;;;16.83;100.00;101997.44;7378608;19;20549;-72
2022/10/02 10:59:41;;;;;;;13.50;2.90;;;;;;;16.80;100.00;101999.19;7380900;19;20006;-72
2022/10/02 11:02:47;;;;;;;14.60;2.60;;;;;;;16.91;100.00;102000.16;7380490;19;20002;-68
2022/10/02 11:05:50;;;;;;;16.55;3.17;;;;;;;17.18;100.00;102000.28;7375135;19;20014;-69
2022/10/02 11:08:57;;;;;;;12.52;4.50;;;;;;;17.36;100.00;102009.19;7379713;19;20029;-69
2022/10/02 11:11:38;;;;;;;10.88;3.15;;;;;;;17.52;100.00;102011.03;7375330;19;20014;-69
2022/10/02 11:14:28;;;;;;;13.73;3.05;;;;;;;17.33;100.00;102010.97;7379308;19;20010;-69
2022/10/02 11:17:32;;;;;;;12.18;2.70;;;;;;;17.28;100.00;102014.47;7376959;19;20515;-69
2022/10/02 11:20:21;;;;;;;14.30;3.10;;;;;;;17.13;100.00;102017.94;7380146;19;20018;-72
2022/10/02 11:23:17;;;;;;;10.77;2.60;;;;;;;17.08;100.00;102021.44;7378054;19;20697;-72
2022/10/02 11:26:08;;;;;;;8.95;2.50;;;;;;;16.87;100.00;102017.78;7378656;19;20011;-72
2022/10/02 11:29:16;;;;;;;8.55;2.45;;;;;;;16.95;100.00;102024.03;7377037;19;20349;-73
2022/10/02 11:32:13;;;;;;;10.27;2.78;;;;;;;16.96;100.00;102015.19;7376887;19;20504;-73
2022/10/02 11:35:17;;;;;;;12.18;4.10;;;;;;;17.12;100.00;102015.28;7380125;19;20461;-72
2022/10/02 11:38:21;;;;;;;9.98;2.80;;;;;;;17.17;100.00;102019.72;7377791;19;20006;-68
2022/10/02 11:41:06;;;;;;;13.45;3.75;;;;;;;17.46;100.00;102022.50;7375091;19;20009;-69
2022/10/02 11:43:51;;;;;;;9.98;2.63;;;;;;;17.57;100.00;102019.88;7374719;19;20429;-69
2022/10/02 11:46:41;;;;;;;11.52;3.88;;;;;;;17.71;100.00;102023.47;7376540;19;20513;-69
2022/10/02 11:49:31;;;;;;;10.02;2.42;;;;;;;17.59;100.00;102028.75;7378792;19;20014;-69
2022/10/02 11:52:51;;;;;;;11.20;3.47;;;;;;;17.83;100.00;102023.50;7377639;19;20010;-68
2022/10/02 11:55:37;;;;;;;9.68;2.47;;;;;;;18.11;100.00;102027.09;7377638;19;20011;-69
2022/10/02 11:58:18;;;;;;;12.75;2.42;;;;;;;18.63;100.00;102027.13;7378369;19;20025;-69
2022/10/02 12:01:08;;;;;;;14.23;3.10;;;;;;;18.73;100.00;102034.16;7377211;19;20627;-69
2022/10/02 12:03:53;;;;;;;9.57;2.72;;;;;;;18.03;100.00;102044.78;7377651;19;20007;-69
2022/10/02 12:06:43;;;;;;;11.25;3.00;;;;;;;17.92;100.00;102052.72;7375426;19;20006;-73
2022/10/02 12:09:20;;;;;;;12.38;3.47;;;;;;;17.60;100.00;102057.94;7378960;19;20010;-73
2022/10/02 12:12:01;;;;;;;13.02;2.80;;;;;;;17.20;100.00;102051.56;7377487;19;20014;-73
2022/10/02 12:14:37;;;;;;;11.70;2.92;;;;;;;16.89;100.00;102055.78;7375798;19;20046;-73
2022/10/02 12:17:22;;;;;;;13.48;3.72;;;;;;;16.73;100.00;102063.63;7374186;19;20319;-73
2022/10/02 12:28:54;;;;;;;13.43;2.65;;;;;;;16.46;100.00;102070.47;7376245;19;20031;-73
2022/10/02 12:31:33;;;;;;;10.50;2.40;;;;;;;16.44;100.00;102080.16;7377055;19;20018;-73
2022/10/02 12:34:12;;;;;;;9.45;1.90;;;;;;;16.54;100.00;102076.72;7377572;19;20011;-73
2022/10/02 12:36:57;;;;;;;12.45;2.95;;;;;;;16.37;100.00;102080.09;7378103;19;20011;-69
2022/10/02 12:39:44;;;;;;;15.27;2.78;;;;;;;16.52;100.00;102081.09;7378270;19;20018;-69